sensor_id;sensor_type;location;lat;lon;timestamp;temperature;humidity
1988;DHT22;12775;46.994;15.498;2023-11-22T00:01:10;7.70;99.90
1988;DHT22;12775;46.994;15.498;2023-11-22T00:03:35;7.60;99.90
1988;DHT22;12775;46.994;15.498;2023-11-22T00:06:02;7.50;99.90
1988;DHT22;12775;46.994;15.498;2023-11-22T00:08:28;7.50;99.90
1988;DHT22;12775;46.994;15.498;2023-11-22T00:10:55;7.50;99.90
1988;DHT22;12775;46.994;15.498;2023-11-22T00:13:22;7.50;99.90
1988;DHT22;12775;46.994;15.498;2023-11-22T00:15:49;7.40;99.90
1988;DHT22;12775;46.994;15.498;2023-11-22T00:18:16;7.40;99.90
1988;DHT22;12775;46.994;15.498;2023-11-22T00:20:43;7.40;99.90
1988;DHT22;12775;46.994;15.498;2023-11-22T00:23:10;7.40;99.90
1988;DHT22;12775;46.994;15.498;2023-11-22T00:25:36;7.40;99.90
1988;DHT22;12775;46.994;15.498;2023-11-22T00:28:03;7.40;99.90
1988;DHT22;12775;46.994;15.498;2023-11-22T00:30:29;7.40;99.90
1988;DHT22;12775;46.994;15.498;2023-11-22T00:32:56;7.30;99.90
1988;DHT22;12775;46.994;15.498;2023-11-22T00:35:23;7.10;99.90
1988;DHT22;12775;46.994;15.498;2023-11-22T00:37:51;6.90;99.90
1988;DHT22;12775;46.994;15.498;2023-11-22T00:40:18;6.90;99.90
1988;DHT22;12775;46.994;15.498;2023-11-22T00:42:44;6.90;99.90
1988;DHT22;12775;46.994;15.498;2023-11-22T00:45:12;6.90;99.90
1988;DHT22;12775;46.994;15.498;2023-11-22T00:47:39;6.90;99.90
1988;DHT22;12775;46.994;15.498;2023-11-22T00:50:06;6.90;99.90
1988;DHT22;12775;46.994;15.498;2023-11-22T00:52:33;6.90;99.90
1988;DHT22;12775;46.994;15.498;2023-11-22T00:55:00;6.90;99.90
1988;DHT22;12775;46.994;15.498;2023-11-22T00:57:27;6.90;99.90
1988;DHT22;12775;46.994;15.498;2023-11-22T00:59:53;6.90;99.90
1988;DHT22;12775;46.994;15.498;2023-11-22T01:02:20;6.90;99.90
1988;DHT22;12775;46.994;15.498;2023-11-22T01:04:46;7.00;99.90
1988;DHT22;12775;46.994;15.498;2023-11-22T01:07:14;7.00;99.90
1988;DHT22;12775;46.994;15.498;2023-11-22T01:09:41;7.00;99.90
1988;DHT22;12775;46.994;15.498;2023-11-22T01:12:08;7.00;99.90
1988;DHT22;12775;46.994;15.498;2023-11-22T01:14:34;7.00;99.90
1988;DHT22;12775;46.994;15.498;2023-11-22T01:17:02;7.00;99.90
1988;DHT22;12775;46.994;15.498;2023-11-22T01:19:28;6.90;99.90
1988;DHT22;12775;46.994;15.498;2023-11-22T01:21:55;6.90;99.90
1988;DHT22;12775;46.994;15.498;2023-11-22T01:24:21;6.90;99.90
1988;DHT22;12775;46.994;15.498;2023-11-22T01:26:48;6.90;99.90
1988;DHT22;12775;46.994;15.498;2023-11-22T01:29:15;6.80;99.90
1988;DHT22;12775;46.994;15.498;2023-11-22T01:31:41;6.80;99.90
1988;DHT22;12775;46.994;15.498;2023-11-22T01:34:08;6.80;99.90
1988;DHT22;12775;46.994;15.498;2023-11-22T01:36:34;6.80;99.90
1988;DHT22;12775;46.994;15.498;2023-11-22T01:39:02;6.70;99.90
1988;DHT22;12775;46.994;15.498;2023-11-22T01:41:28;6.70;99.90
1988;DHT22;12775;46.994;15.498;2023-11-22T01:43:55;6.70;99.90
1988;DHT22;12775;46.994;15.498;2023-11-22T01:46:22;6.60;99.90
1988;DHT22;12775;46.994;15.498;2023-11-22T01:48:51;6.50;99.90
1988;DHT22;12775;46.994;15.498;2023-11-22T01:51:19;6.50;99.90
1988;DHT22;12775;46.994;15.498;2023-11-22T01:53:44;6.40;99.90
1988;DHT22;12775;46.994;15.498;2023-11-22T01:56:11;6.20;99.90
1988;DHT22;12775;46.994;15.498;2023-11-22T01:58:38;6.20;99.90
1988;DHT22;12775;46.994;15.498;2023-11-22T02:01:05;6.20;99.90
1988;DHT22;12775;46.994;15.498;2023-11-22T02:03:31;6.00;99.90
1988;DHT22;12775;46.994;15.498;2023-11-22T02:05:59;6.00;99.90
1988;DHT22;12775;46.994;15.498;2023-11-22T02:08:26;5.90;99.90
1988;DHT22;12775;46.994;15.498;2023-11-22T02:10:58;6.00;99.90
1988;DHT22;12775;46.994;15.498;2023-11-22T02:13:24;6.00;99.90
1988;DHT22;12775;46.994;15.498;2023-11-22T02:15:51;6.00;99.90
1988;DHT22;12775;46.994;15.498;2023-11-22T02:18:17;6.00;99.90
1988;DHT22;12775;46.994;15.498;2023-11-22T02:20:44;6.00;99.90
1988;DHT22;12775;46.994;15.498;2023-11-22T02:23:11;6.00;99.90
1988;DHT22;12775;46.994;15.498;2023-11-22T02:25:38;6.00;99.90
1988;DHT22;12775;46.994;15.498;2023-11-22T02:28:05;5.80;99.90
1988;DHT22;12775;46.994;15.498;2023-11-22T02:30:32;5.80;99.90
1988;DHT22;12775;46.994;15.498;2023-11-22T02:32:58;5.70;99.90
1988;DHT22;12775;46.994;15.498;2023-11-22T02:35:26;5.60;99.90
1988;DHT22;12775;46.994;15.498;2023-11-22T02:37:52;5.50;99.90
1988;DHT22;12775;46.994;15.498;2023-11-22T02:40:20;5.50;99.90
1988;DHT22;12775;46.994;15.498;2023-11-22T02:42:50;5.50;99.90
1988;DHT22;12775;46.994;15.498;2023-11-22T02:45:16;5.50;99.90
1988;DHT22;12775;46.994;15.498;2023-11-22T02:47:44;5.20;99.90
1988;DHT22;12775;46.994;15.498;2023-11-22T02:50:12;5.20;99.90
1988;DHT22;12775;46.994;15.498;2023-11-22T02:52:39;5.20;99.90
1988;DHT22;12775;46.994;15.498;2023-11-22T02:55:07;5.20;99.90
1988;DHT22;12775;46.994;15.498;2023-11-22T02:57:35;5.30;99.90
1988;DHT22;12775;46.994;15.498;2023-11-22T03:00:01;5.20;99.90
1988;DHT22;12775;46.994;15.498;2023-11-22T03:02:28;5.10;99.90
1988;DHT22;12775;46.994;15.498;2023-11-22T03:04:55;5.10;99.90
1988;DHT22;12775;46.994;15.498;2023-11-22T03:07:22;5.10;99.90
1988;DHT22;12775;46.994;15.498;2023-11-22T03:09:49;5.10;99.90
1988;DHT22;12775;46.994;15.498;2023-11-22T03:12:15;5.10;99.90
1988;DHT22;12775;46.994;15.498;2023-11-22T03:14:43;5.20;99.90
1988;DHT22;12775;46.994;15.498;2023-11-22T03:17:10;5.20;99.90
1988;DHT22;12775;46.994;15.498;2023-11-22T03:19:38;5.20;99.90
1988;DHT22;12775;46.994;15.498;2023-11-22T03:22:04;5.20;99.90
1988;DHT22;12775;46.994;15.498;2023-11-22T03:24:31;5.20;99.90
1988;DHT22;12775;46.994;15.498;2023-11-22T03:26:57;5.30;99.90
1988;DHT22;12775;46.994;15.498;2023-11-22T03:29:24;5.30;99.90
1988;DHT22;12775;46.994;15.498;2023-11-22T03:31:51;5.30;99.90
1988;DHT22;12775;46.994;15.498;2023-11-22T03:34:18;5.30;99.90
1988;DHT22;12775;46.994;15.498;2023-11-22T03:36:44;5.30;99.90
1988;DHT22;12775;46.994;15.498;2023-11-22T03:39:12;5.40;99.90
1988;DHT22;12775;46.994;15.498;2023-11-22T03:41:38;5.30;99.90
1988;DHT22;12775;46.994;15.498;2023-11-22T03:44:06;5.30;99.90
1988;DHT22;12775;46.994;15.498;2023-11-22T03:46:33;5.30;99.90
1988;DHT22;12775;46.994;15.498;2023-11-22T03:49:00;5.30;99.90
1988;DHT22;12775;46.994;15.498;2023-11-22T03:51:26;5.30;99.90
1988;DHT22;12775;46.994;15.498;2023-11-22T03:53:55;5.30;99.90
1988;DHT22;12775;46.994;15.498;2023-11-22T03:56:21;5.30;99.90
1988;DHT22;12775;46.994;15.498;2023-11-22T03:58:48;5.30;99.90
1988;DHT22;12775;46.994;15.498;2023-11-22T04:01:15;5.30;99.90
1988;DHT22;12775;46.994;15.498;2023-11-22T04:03:42;5.20;99.90
1988;DHT22;12775;46.994;15.498;2023-11-22T04:06:08;5.20;99.90
1988;DHT22;12775;46.994;15.498;2023-11-22T04:08:35;5.20;99.90
1988;DHT22;12775;46.994;15.498;2023-11-22T04:11:03;5.20;99.90
1988;DHT22;12775;46.994;15.498;2023-11-22T04:13:30;5.10;99.90
1988;DHT22;12775;46.994;15.498;2023-11-22T04:15:56;5.10;99.90
1988;DHT22;12775;46.994;15.498;2023-11-22T04:18:23;5.20;99.90
1988;DHT22;12775;46.994;15.498;2023-11-22T04:20:49;5.10;99.90
1988;DHT22;12775;46.994;15.498;2023-11-22T04:23:16;5.10;99.90
1988;DHT22;12775;46.994;15.498;2023-11-22T04:25:43;5.10;99.90
1988;DHT22;12775;46.994;15.498;2023-11-22T04:28:09;5.00;99.90
1988;DHT22;12775;46.994;15.498;2023-11-22T04:30:36;4.90;99.90
1988;DHT22;12775;46.994;15.498;2023-11-22T04:33:02;4.80;99.90
1988;DHT22;12775;46.994;15.498;2023-11-22T04:35:29;4.80;99.90
1988;DHT22;12775;46.994;15.498;2023-11-22T04:37:56;4.70;99.90
1988;DHT22;12775;46.994;15.498;2023-11-22T04:40:23;4.60;99.90
1988;DHT22;12775;46.994;15.498;2023-11-22T04:42:50;4.60;99.90
1988;DHT22;12775;46.994;15.498;2023-11-22T04:45:16;4.50;99.90
1988;DHT22;12775;46.994;15.498;2023-11-22T04:47:43;4.40;99.90
1988;DHT22;12775;46.994;15.498;2023-11-22T04:50:10;4.40;99.90
1988;DHT22;12775;46.994;15.498;2023-11-22T04:52:36;4.40;99.90
1988;DHT22;12775;46.994;15.498;2023-11-22T04:55:03;4.40;99.90
1988;DHT22;12775;46.994;15.498;2023-11-22T04:57:30;4.40;99.90
1988;DHT22;12775;46.994;15.498;2023-11-22T04:59:56;4.40;99.90
1988;DHT22;12775;46.994;15.498;2023-11-22T05:02:23;4.40;99.90
1988;DHT22;12775;46.994;15.498;2023-11-22T05:04:50;4.40;99.90
1988;DHT22;12775;46.994;15.498;2023-11-22T05:07:17;4.50;99.90
1988;DHT22;12775;46.994;15.498;2023-11-22T05:09:43;4.50;99.90
1988;DHT22;12775;46.994;15.498;2023-11-22T05:12:10;4.50;99.90
1988;DHT22;12775;46.994;15.498;2023-11-22T05:14:37;4.50;99.90
1988;DHT22;12775;46.994;15.498;2023-11-22T05:17:05;4.50;99.90
1988;DHT22;12775;46.994;15.498;2023-11-22T05:19:31;4.50;99.90
1988;DHT22;12775;46.994;15.498;2023-11-22T05:21:58;4.50;99.90
1988;DHT22;12775;46.994;15.498;2023-11-22T05:24:25;4.50;99.90
1988;DHT22;12775;46.994;15.498;2023-11-22T05:26:51;4.50;99.90
1988;DHT22;12775;46.994;15.498;2023-11-22T05:29:18;4.50;99.90
1988;DHT22;12775;46.994;15.498;2023-11-22T05:31:46;4.30;99.90
1988;DHT22;12775;46.994;15.498;2023-11-22T05:34:13;4.30;99.90
1988;DHT22;12775;46.994;15.498;2023-11-22T05:36:41;4.20;99.90
1988;DHT22;12775;46.994;15.498;2023-11-22T05:39:08;4.30;99.90
1988;DHT22;12775;46.994;15.498;2023-11-22T05:41:35;4.30;99.90
1988;DHT22;12775;46.994;15.498;2023-11-22T05:44:03;4.20;99.90
1988;DHT22;12775;46.994;15.498;2023-11-22T05:46:31;3.90;99.90
1988;DHT22;12775;46.994;15.498;2023-11-22T05:48:58;3.90;99.90
1988;DHT22;12775;46.994;15.498;2023-11-22T05:51:25;3.90;99.90
1988;DHT22;12775;46.994;15.498;2023-11-22T05:53:53;4.00;99.90
1988;DHT22;12775;46.994;15.498;2023-11-22T05:56:20;3.90;99.90
1988;DHT22;12775;46.994;15.498;2023-11-22T05:58:48;4.00;99.90
1988;DHT22;12775;46.994;15.498;2023-11-22T06:01:15;3.80;99.90
1988;DHT22;12775;46.994;15.498;2023-11-22T06:03:42;3.90;99.90
1988;DHT22;12775;46.994;15.498;2023-11-22T06:06:10;3.90;99.90
1988;DHT22;12775;46.994;15.498;2023-11-22T06:08:37;3.90;99.90
1988;DHT22;12775;46.994;15.498;2023-11-22T06:11:04;3.90;99.90
1988;DHT22;12775;46.994;15.498;2023-11-22T06:13:32;4.00;99.90
1988;DHT22;12775;46.994;15.498;2023-11-22T06:15:59;4.00;99.90
1988;DHT22;12775;46.994;15.498;2023-11-22T06:18:26;3.80;99.90
1988;DHT22;12775;46.994;15.498;2023-11-22T06:20:54;3.80;99.90
1988;DHT22;12775;46.994;15.498;2023-11-22T06:23:21;3.80;99.90
1988;DHT22;12775;46.994;15.498;2023-11-22T06:25:49;3.80;99.90
1988;DHT22;12775;46.994;15.498;2023-11-22T06:28:16;3.80;99.90
1988;DHT22;12775;46.994;15.498;2023-11-22T06:30:43;3.80;99.90
1988;DHT22;12775;46.994;15.498;2023-11-22T06:33:11;3.80;99.90
1988;DHT22;12775;46.994;15.498;2023-11-22T06:35:38;3.80;99.90
1988;DHT22;12775;46.994;15.498;2023-11-22T06:38:05;3.80;99.90
1988;DHT22;12775;46.994;15.498;2023-11-22T06:40:33;3.70;99.90
1988;DHT22;12775;46.994;15.498;2023-11-22T06:43:00;3.80;99.90
1988;DHT22;12775;46.994;15.498;2023-11-22T06:45:27;3.70;99.90
1988;DHT22;12775;46.994;15.498;2023-11-22T06:47:55;3.60;99.90
1988;DHT22;12775;46.994;15.498;2023-11-22T06:50:22;3.60;99.90
1988;DHT22;12775;46.994;15.498;2023-11-22T06:52:50;3.70;99.90
1988;DHT22;12775;46.994;15.498;2023-11-22T06:55:17;3.60;99.90
1988;DHT22;12775;46.994;15.498;2023-11-22T06:57:44;3.60;99.90
1988;DHT22;12775;46.994;15.498;2023-11-22T07:00:12;3.60;99.90
1988;DHT22;12775;46.994;15.498;2023-11-22T07:02:39;3.60;99.90
1988;DHT22;12775;46.994;15.498;2023-11-22T07:05:07;3.50;99.90
1988;DHT22;12775;46.994;15.498;2023-11-22T07:07:35;3.30;99.90
1988;DHT22;12775;46.994;15.498;2023-11-22T07:10:02;3.20;99.90
1988;DHT22;12775;46.994;15.498;2023-11-22T07:12:29;3.10;99.90
1988;DHT22;12775;46.994;15.498;2023-11-22T07:14:57;3.00;99.90
1988;DHT22;12775;46.994;15.498;2023-11-22T07:17:24;3.10;99.90
1988;DHT22;12775;46.994;15.498;2023-11-22T07:19:51;3.20;99.90
1988;DHT22;12775;46.994;15.498;2023-11-22T07:22:19;3.20;99.90
1988;DHT22;12775;46.994;15.498;2023-11-22T07:24:46;3.20;99.90
1988;DHT22;12775;46.994;15.498;2023-11-22T07:27:14;3.20;99.90
1988;DHT22;12775;46.994;15.498;2023-11-22T07:29:42;3.20;99.90
1988;DHT22;12775;46.994;15.498;2023-11-22T07:32:09;3.30;99.90
1988;DHT22;12775;46.994;15.498;2023-11-22T07:34:38;3.40;99.90
1988;DHT22;12775;46.994;15.498;2023-11-22T07:37:04;3.50;99.90
1988;DHT22;12775;46.994;15.498;2023-11-22T07:39:31;3.50;99.90
1988;DHT22;12775;46.994;15.498;2023-11-22T07:41:58;3.60;99.90
1988;DHT22;12775;46.994;15.498;2023-11-22T07:44:26;3.60;99.90
1988;DHT22;12775;46.994;15.498;2023-11-22T07:46:53;3.70;99.90
1988;DHT22;12775;46.994;15.498;2023-11-22T07:49:21;3.80;99.90
1988;DHT22;12775;46.994;15.498;2023-11-22T07:51:49;3.90;99.90
1988;DHT22;12775;46.994;15.498;2023-11-22T07:54:19;3.90;99.90
1988;DHT22;12775;46.994;15.498;2023-11-22T07:56:49;3.80;99.90
1988;DHT22;12775;46.994;15.498;2023-11-22T07:59:15;4.00;99.90
1988;DHT22;12775;46.994;15.498;2023-11-22T08:01:43;4.10;99.90
1988;DHT22;12775;46.994;15.498;2023-11-22T08:04:09;4.10;99.90
1988;DHT22;12775;46.994;15.498;2023-11-22T08:06:36;4.20;99.90
1988;DHT22;12775;46.994;15.498;2023-11-22T08:09:03;4.30;99.90
1988;DHT22;12775;46.994;15.498;2023-11-22T08:11:29;4.40;99.90
1988;DHT22;12775;46.994;15.498;2023-11-22T08:13:56;4.40;99.90
1988;DHT22;12775;46.994;15.498;2023-11-22T08:16:22;4.50;99.90
1988;DHT22;12775;46.994;15.498;2023-11-22T08:18:50;4.30;99.90
1988;DHT22;12775;46.994;15.498;2023-11-22T08:21:17;4.30;99.90
1988;DHT22;12775;46.994;15.498;2023-11-22T08:23:46;4.30;99.90
1988;DHT22;12775;46.994;15.498;2023-11-22T08:26:13;4.20;99.90
1988;DHT22;12775;46.994;15.498;2023-11-22T08:28:40;4.20;99.90
1988;DHT22;12775;46.994;15.498;2023-11-22T08:31:07;4.20;99.90
1988;DHT22;12775;46.994;15.498;2023-11-22T08:33:37;4.20;99.90
1988;DHT22;12775;46.994;15.498;2023-11-22T08:36:07;4.20;99.90
1988;DHT22;12775;46.994;15.498;2023-11-22T08:38:33;4.20;99.90
1988;DHT22;12775;46.994;15.498;2023-11-22T08:41:02;4.20;99.90
1988;DHT22;12775;46.994;15.498;2023-11-22T08:43:29;4.30;99.90
1988;DHT22;12775;46.994;15.498;2023-11-22T08:45:56;4.30;99.90
1988;DHT22;12775;46.994;15.498;2023-11-22T08:48:23;4.50;99.90
1988;DHT22;12775;46.994;15.498;2023-11-22T08:50:50;4.60;99.90
1988;DHT22;12775;46.994;15.498;2023-11-22T08:53:18;4.70;99.90
1988;DHT22;12775;46.994;15.498;2023-11-22T08:55:46;4.80;99.90
1988;DHT22;12775;46.994;15.498;2023-11-22T08:58:12;4.90;99.90
1988;DHT22;12775;46.994;15.498;2023-11-22T09:00:40;5.00;99.90
1988;DHT22;12775;46.994;15.498;2023-11-22T09:03:07;5.00;99.90
1988;DHT22;12775;46.994;15.498;2023-11-22T09:05:34;5.20;99.90
1988;DHT22;12775;46.994;15.498;2023-11-22T09:08:01;5.30;99.90
1988;DHT22;12775;46.994;15.498;2023-11-22T09:10:28;5.40;99.90
1988;DHT22;12775;46.994;15.498;2023-11-22T09:12:56;5.50;99.90
1988;DHT22;12775;46.994;15.498;2023-11-22T09:15:23;5.50;99.90
1988;DHT22;12775;46.994;15.498;2023-11-22T09:17:50;5.70;99.90
1988;DHT22;12775;46.994;15.498;2023-11-22T09:20:17;5.70;99.90
1988;DHT22;12775;46.994;15.498;2023-11-22T09:22:45;5.90;99.90
1988;DHT22;12775;46.994;15.498;2023-11-22T09:25:12;5.90;99.90
1988;DHT22;12775;46.994;15.498;2023-11-22T09:27:39;6.00;99.90
1988;DHT22;12775;46.994;15.498;2023-11-22T09:30:08;6.10;99.90
1988;DHT22;12775;46.994;15.498;2023-11-22T09:32:34;6.10;99.90
1988;DHT22;12775;46.994;15.498;2023-11-22T09:35:03;6.30;99.90
1988;DHT22;12775;46.994;15.498;2023-11-22T09:37:31;6.30;99.90
1988;DHT22;12775;46.994;15.498;2023-11-22T09:39:58;6.30;99.90
1988;DHT22;12775;46.994;15.498;2023-11-22T09:42:25;6.30;99.90
1988;DHT22;12775;46.994;15.498;2023-11-22T09:44:52;6.50;99.90
1988;DHT22;12775;46.994;15.498;2023-11-22T09:47:19;6.60;99.90
1988;DHT22;12775;46.994;15.498;2023-11-22T09:49:47;6.70;99.90
1988;DHT22;12775;46.994;15.498;2023-11-22T09:52:14;6.80;99.90
1988;DHT22;12775;46.994;15.498;2023-11-22T09:54:42;6.90;99.90
1988;DHT22;12775;46.994;15.498;2023-11-22T09:57:09;7.00;99.90
1988;DHT22;12775;46.994;15.498;2023-11-22T09:59:36;7.10;99.90
1988;DHT22;12775;46.994;15.498;2023-11-22T10:02:04;7.20;99.90
1988;DHT22;12775;46.994;15.498;2023-11-22T10:04:31;7.30;99.90
1988;DHT22;12775;46.994;15.498;2023-11-22T10:06:58;7.40;99.90
1988;DHT22;12775;46.994;15.498;2023-11-22T10:09:26;7.50;99.90
1988;DHT22;12775;46.994;15.498;2023-11-22T10:11:57;7.70;99.90
1988;DHT22;12775;46.994;15.498;2023-11-22T10:14:23;7.60;99.90
1988;DHT22;12775;46.994;15.498;2023-11-22T10:19:23;7.90;99.90
1988;DHT22;12775;46.994;15.498;2023-11-22T10:22:01;8.10;99.90
1988;DHT22;12775;46.994;15.498;2023-11-22T10:24:18;8.20;99.90
1988;DHT22;12775;46.994;15.498;2023-11-22T10:26:45;8.40;99.90
1988;DHT22;12775;46.994;15.498;2023-11-22T10:29:13;8.50;99.90
1988;DHT22;12775;46.994;15.498;2023-11-22T10:31:40;8.60;99.90
1988;DHT22;12775;46.994;15.498;2023-11-22T10:34:08;8.70;99.90
1988;DHT22;12775;46.994;15.498;2023-11-22T10:36:35;8.70;99.90
1988;DHT22;12775;46.994;15.498;2023-11-22T10:39:02;8.80;99.90
1988;DHT22;12775;46.994;15.498;2023-11-22T10:41:30;8.90;99.90
1988;DHT22;12775;46.994;15.498;2023-11-22T10:43:57;8.90;99.90
1988;DHT22;12775;46.994;15.498;2023-11-22T10:46:27;8.90;99.90
1988;DHT22;12775;46.994;15.498;2023-11-22T10:48:51;9.00;99.90
1988;DHT22;12775;46.994;15.498;2023-11-22T10:51:18;9.10;99.90
1988;DHT22;12775;46.994;15.498;2023-11-22T10:53:47;9.40;99.90
1988;DHT22;12775;46.994;15.498;2023-11-22T10:56:14;9.50;99.90
1988;DHT22;12775;46.994;15.498;2023-11-22T10:58:51;9.50;99.90
1988;DHT22;12775;46.994;15.498;2023-11-22T11:01:20;9.60;99.90
1988;DHT22;12775;46.994;15.498;2023-11-22T11:03:46;9.80;99.90
1988;DHT22;12775;46.994;15.498;2023-11-22T11:06:12;9.80;99.90
1988;DHT22;12775;46.994;15.498;2023-11-22T11:08:39;10.00;99.90
1988;DHT22;12775;46.994;15.498;2023-11-22T11:11:05;10.00;99.90
1988;DHT22;12775;46.994;15.498;2023-11-22T11:13:33;10.10;99.90
1988;DHT22;12775;46.994;15.498;2023-11-22T11:16:00;10.20;99.90
1988;DHT22;12775;46.994;15.498;2023-11-22T11:18:27;10.30;99.90
1988;DHT22;12775;46.994;15.498;2023-11-22T11:20:55;10.40;99.90
1988;DHT22;12775;46.994;15.498;2023-11-22T11:23:23;10.50;99.90
1988;DHT22;12775;46.994;15.498;2023-11-22T11:25:50;10.50;99.90
1988;DHT22;12775;46.994;15.498;2023-11-22T11:28:17;10.60;99.90
1988;DHT22;12775;46.994;15.498;2023-11-22T11:30:45;10.70;99.90
1988;DHT22;12775;46.994;15.498;2023-11-22T11:33:12;10.60;99.90
1988;DHT22;12775;46.994;15.498;2023-11-22T11:35:41;10.70;99.90
1988;DHT22;12775;46.994;15.498;2023-11-22T11:38:06;10.80;99.90
1988;DHT22;12775;46.994;15.498;2023-11-22T11:40:35;10.90;99.90
1988;DHT22;12775;46.994;15.498;2023-11-22T11:43:02;10.80;99.90
1988;DHT22;12775;46.994;15.498;2023-11-22T11:45:28;10.90;99.90
1988;DHT22;12775;46.994;15.498;2023-11-22T11:47:55;10.90;99.90
1988;DHT22;12775;46.994;15.498;2023-11-22T11:50:23;10.90;99.90
1988;DHT22;12775;46.994;15.498;2023-11-22T11:52:50;10.90;99.90
1988;DHT22;12775;46.994;15.498;2023-11-22T11:55:17;10.90;99.90
1988;DHT22;12775;46.994;15.498;2023-11-22T11:57:44;10.90;99.90
1988;DHT22;12775;46.994;15.498;2023-11-22T12:00:13;11.00;99.90
1988;DHT22;12775;46.994;15.498;2023-11-22T12:02:40;11.00;99.90
1988;DHT22;12775;46.994;15.498;2023-11-22T12:05:06;10.90;99.90
1988;DHT22;12775;46.994;15.498;2023-11-22T12:07:35;11.00;99.90
1988;DHT22;12775;46.994;15.498;2023-11-22T12:10:01;11.10;99.90
1988;DHT22;12775;46.994;15.498;2023-11-22T12:12:28;11.10;99.90
1988;DHT22;12775;46.994;15.498;2023-11-22T12:14:56;11.20;99.90
1988;DHT22;12775;46.994;15.498;2023-11-22T12:17:23;11.10;99.90
1988;DHT22;12775;46.994;15.498;2023-11-22T12:19:50;11.10;99.90
1988;DHT22;12775;46.994;15.498;2023-11-22T12:22:18;11.20;99.90
1988;DHT22;12775;46.994;15.498;2023-11-22T12:24:45;11.20;99.90
1988;DHT22;12775;46.994;15.498;2023-11-22T12:27:13;11.30;99.90
1988;DHT22;12775;46.994;15.498;2023-11-22T12:29:40;11.30;99.90
1988;DHT22;12775;46.994;15.498;2023-11-22T12:32:07;11.40;99.90
1988;DHT22;12775;46.994;15.498;2023-11-22T12:34:35;11.50;99.90
1988;DHT22;12775;46.994;15.498;2023-11-22T12:37:02;11.60;99.90
1988;DHT22;12775;46.994;15.498;2023-11-22T12:39:29;11.60;99.90
1988;DHT22;12775;46.994;15.498;2023-11-22T12:41:57;11.60;99.80
1988;DHT22;12775;46.994;15.498;2023-11-22T12:44:24;11.60;99.30
1988;DHT22;12775;46.994;15.498;2023-11-22T12:46:52;11.50;99.90
1988;DHT22;12775;46.994;15.498;2023-11-22T12:49:22;11.50;97.70
1988;DHT22;12775;46.994;15.498;2023-11-22T12:51:52;11.40;95.10
1988;DHT22;12775;46.994;15.498;2023-11-22T12:54:19;11.20;93.50
1988;DHT22;12775;46.994;15.498;2023-11-22T12:56:50;11.20;94.70
1988;DHT22;12775;46.994;15.498;2023-11-22T12:59:17;11.20;94.70
1988;DHT22;12775;46.994;15.498;2023-11-22T13:01:45;11.00;93.70
1988;DHT22;12775;46.994;15.498;2023-11-22T13:04:12;10.80;93.50
1988;DHT22;12775;46.994;15.498;2023-11-22T13:06:38;10.80;93.50
1988;DHT22;12775;46.994;15.498;2023-11-22T13:09:05;10.60;93.70
1988;DHT22;12775;46.994;15.498;2023-11-22T13:11:31;10.70;93.30
1988;DHT22;12775;46.994;15.498;2023-11-22T13:13:59;10.60;92.80
1988;DHT22;12775;46.994;15.498;2023-11-22T13:16:26;10.50;93.60
1988;DHT22;12775;46.994;15.498;2023-11-22T13:18:54;10.60;93.80
1988;DHT22;12775;46.994;15.498;2023-11-22T13:21:21;10.50;93.90
1988;DHT22;12775;46.994;15.498;2023-11-22T13:23:48;10.50;92.80
1988;DHT22;12775;46.994;15.498;2023-11-22T13:26:16;10.50;93.20
1988;DHT22;12775;46.994;15.498;2023-11-22T13:28:43;10.40;92.90
1988;DHT22;12775;46.994;15.498;2023-11-22T13:31:10;10.30;93.20
1988;DHT22;12775;46.994;15.498;2023-11-22T13:33:37;10.30;93.20
1988;DHT22;12775;46.994;15.498;2023-11-22T13:36:04;10.30;92.90
1988;DHT22;12775;46.994;15.498;2023-11-22T13:38:31;10.30;93.40
1988;DHT22;12775;46.994;15.498;2023-11-22T13:40:58;10.30;93.40
1988;DHT22;12775;46.994;15.498;2023-11-22T13:43:25;10.10;93.50
1988;DHT22;12775;46.994;15.498;2023-11-22T13:45:53;10.10;93.00
1988;DHT22;12775;46.994;15.498;2023-11-22T13:48:20;10.00;92.90
1988;DHT22;12775;46.994;15.498;2023-11-22T13:50:48;10.10;92.90
1988;DHT22;12775;46.994;15.498;2023-11-22T13:53:15;10.00;93.20
1988;DHT22;12775;46.994;15.498;2023-11-22T13:55:42;9.90;93.50
1988;DHT22;12775;46.994;15.498;2023-11-22T13:58:10;9.70;93.70
1988;DHT22;12775;46.994;15.498;2023-11-22T14:00:37;9.70;93.40
1988;DHT22;12775;46.994;15.498;2023-11-22T14:03:04;9.70;93.80
1988;DHT22;12775;46.994;15.498;2023-11-22T14:05:32;9.70;93.80
1988;DHT22;12775;46.994;15.498;2023-11-22T14:07:58;9.60;93.80
1988;DHT22;12775;46.994;15.498;2023-11-22T14:10:25;9.60;93.70
1988;DHT22;12775;46.994;15.498;2023-11-22T14:12:52;9.50;93.50
1988;DHT22;12775;46.994;15.498;2023-11-22T14:15:19;9.50;93.50
1988;DHT22;12775;46.994;15.498;2023-11-22T14:17:45;9.40;93.60
1988;DHT22;12775;46.994;15.498;2023-11-22T14:20:12;9.40;94.00
1988;DHT22;12775;46.994;15.498;2023-11-22T14:22:39;9.40;94.20
1988;DHT22;12775;46.994;15.498;2023-11-22T14:25:06;9.30;93.80
1988;DHT22;12775;46.994;15.498;2023-11-22T14:27:34;9.30;93.80
1988;DHT22;12775;46.994;15.498;2023-11-22T14:30:01;9.40;93.60
1988;DHT22;12775;46.994;15.498;2023-11-22T14:32:27;9.40;93.60
1988;DHT22;12775;46.994;15.498;2023-11-22T14:34:54;9.30;93.70
1988;DHT22;12775;46.994;15.498;2023-11-22T14:37:22;9.20;93.30
1988;DHT22;12775;46.994;15.498;2023-11-22T14:39:50;9.20;93.60
1988;DHT22;12775;46.994;15.498;2023-11-22T14:42:16;9.20;93.60
1988;DHT22;12775;46.994;15.498;2023-11-22T14:44:44;9.10;93.90
1988;DHT22;12775;46.994;15.498;2023-11-22T14:47:10;9.10;93.90
1988;DHT22;12775;46.994;15.498;2023-11-22T14:49:39;9.00;93.70
1988;DHT22;12775;46.994;15.498;2023-11-22T14:52:05;9.00;94.10
1988;DHT22;12775;46.994;15.498;2023-11-22T14:54:32;9.10;93.80
1988;DHT22;12775;46.994;15.498;2023-11-22T14:56:59;9.00;93.90
1988;DHT22;12775;46.994;15.498;2023-11-22T14:59:25;8.80;93.90
1988;DHT22;12775;46.994;15.498;2023-11-22T15:01:53;8.80;94.40
1988;DHT22;12775;46.994;15.498;2023-11-22T15:04:20;8.80;94.40
1988;DHT22;12775;46.994;15.498;2023-11-22T15:06:46;8.80;94.40
1988;DHT22;12775;46.994;15.498;2023-11-22T15:09:13;8.80;94.70
1988;DHT22;12775;46.994;15.498;2023-11-22T15:11:40;8.80;94.50
1988;DHT22;12775;46.994;15.498;2023-11-22T15:14:06;8.80;94.90
1988;DHT22;12775;46.994;15.498;2023-11-22T15:16:33;8.80;94.70
1988;DHT22;12775;46.994;15.498;2023-11-22T15:18:59;8.80;94.50
1988;DHT22;12775;46.994;15.498;2023-11-22T15:21:26;8.80;94.50
1988;DHT22;12775;46.994;15.498;2023-11-22T15:23:53;8.70;94.70
1988;DHT22;12775;46.994;15.498;2023-11-22T15:26:21;8.60;94.20
1988;DHT22;12775;46.994;15.498;2023-11-22T15:28:47;8.60;94.20
1988;DHT22;12775;46.994;15.498;2023-11-22T15:31:17;8.60;93.70
1988;DHT22;12775;46.994;15.498;2023-11-22T15:33:44;8.50;94.10
1988;DHT22;12775;46.994;15.498;2023-11-22T15:36:10;8.50;94.50
1988;DHT22;12775;46.994;15.498;2023-11-22T15:38:37;8.50;94.60
1988;DHT22;12775;46.994;15.498;2023-11-22T15:41:04;8.50;94.70
1988;DHT22;12775;46.994;15.498;2023-11-22T15:43:30;8.40;94.80